Time;durP1;ratioP1;P1;durP2;ratioP2;P2;SDS_P1;SDS_P2;PMS_P1;PMS_P2;Temp;Humidity;BMP_temperature;BMP_pressure;BME280_temperature;BME280_humidity;BME280_pressure;Samples;Min_cycle;Max_cycle;Signal;HPM_P1;HPM_P2
2022/08/21 00:01:24;;;;;;;5.05;1.70;;;24.10;99.90;;;;;;1816733;79;21162;-82
2022/08/21 00:03:56;;;;;;;4.42;1.98;;;24.10;99.90;;;;;;1885019;76;21135;-83
2022/08/21 00:06:27;;;;;;;4.90;1.60;;;24.10;99.90;;;;;;1878359;76;21138;-82
2022/08/21 00:08:58;;;;;;;5.25;1.70;;;24.20;99.90;;;;;;1817853;79;21092;-83
2022/08/21 00:11:30;;;;;;;4.03;2.00;;;24.20;99.90;;;;;;1884307;76;21186;-82
2022/08/21 00:14:01;;;;;;;4.55;1.77;;;24.20;99.90;;;;;;1856280;76;21150;-82
2022/08/21 00:16:33;;;;;;;3.52;2.15;;;24.20;99.90;;;;;;1883718;76;21138;-83
2022/08/21 00:19:05;;;;;;;3.60;1.85;;;24.30;99.90;;;;;;1810355;79;21127;-83
2022/08/21 00:21:37;;;;;;;3.37;1.87;;;24.30;99.90;;;;;;1865854;76;21151;-82
2022/08/21 00:24:09;;;;;;;3.83;1.70;;;24.30;99.90;;;;;;1876513;76;21171;-82
2022/08/21 00:26:42;;;;;;;2.70;1.87;;;24.40;99.90;;;;;;1881669;76;21138;-82
2022/08/21 00:29:13;;;;;;;3.05;1.65;;;24.40;99.90;;;;;;1886529;76;21205;-81
2022/08/21 00:31:49;;;;;;;3.20;2.00;;;24.40;99.90;;;;;;1872866;76;21160;-83
2022/08/21 00:34:32;;;;;;;6.40;1.95;;;24.40;99.90;;;;;;1878819;76;21098;-83
2022/08/21 00:37:07;;;;;;;4.67;2.17;;;24.40;99.90;;;;;;1886069;74;21232;-83
2022/08/21 00:39:39;;;;;;;7.35;2.42;;;24.40;99.90;;;;;;1875657;76;21641;-83
2022/08/21 00:42:14;;;;;;;5.55;2.47;;;24.40;99.90;;;;;;1875836;76;21201;-83
2022/08/21 00:44:45;;;;;;;7.10;2.83;;;24.50;99.90;;;;;;1877556;76;21119;-83
2022/08/21 00:47:18;;;;;;;3.50;2.70;;;24.50;99.90;;;;;;1871546;76;21158;-83
2022/08/21 00:49:49;;;;;;;4.15;2.95;;;24.60;99.90;;;;;;1876897;75;21180;-83
2022/08/21 00:52:26;;;;;;;5.65;2.87;;;24.60;99.90;;;;;;1877819;76;21072;-83
2022/08/21 00:54:59;;;;;;;5.33;3.05;;;24.60;99.90;;;;;;1874100;76;21208;-83
2022/08/21 00:57:34;;;;;;;6.75;3.27;;;24.60;99.90;;;;;;1881671;76;21692;-84
2022/08/21 01:00:09;;;;;;;4.45;3.40;;;24.70;99.90;;;;;;1869474;76;21637;-84
2022/08/21 01:02:45;;;;;;;5.60;3.40;;;24.70;99.90;;;;;;1871697;76;21138;-86
2022/08/21 01:05:14;;;;;;;5.45;3.65;;;24.80;99.90;;;;;;1871658;76;21143;-83
2022/08/21 01:07:45;;;;;;;7.45;3.90;;;24.80;99.90;;;;;;1819501;77;21302;-82
2022/08/21 01:10:18;;;;;;;8.58;4.37;;;24.90;99.90;;;;;;1874570;76;21170;-82
2022/08/21 01:12:51;;;;;;;6.35;4.03;;;24.90;99.90;;;;;;1879428;76;21153;-83
2022/08/21 01:15:24;;;;;;;9.58;4.58;;;25.00;99.90;;;;;;1870979;75;21131;-83
2022/08/21 01:17:56;;;;;;;8.13;4.30;;;25.00;99.90;;;;;;1876001;74;21157;-83
2022/08/21 01:20:27;;;;;;;7.65;4.05;;;25.10;99.90;;;;;;1871771;76;21171;-82
2022/08/21 01:23:01;;;;;;;7.30;4.20;;;25.20;99.90;;;;;;1884510;74;21150;-83
2022/08/21 01:25:33;;;;;;;7.45;4.72;;;25.20;99.90;;;;;;1873499;75;21114;-83
2022/08/21 01:28:07;;;;;;;7.92;4.78;;;25.30;99.90;;;;;;1872770;76;21220;-83
2022/08/21 01:30:39;;;;;;;10.48;4.30;;;25.30;99.90;;;;;;1871697;76;21082;-82
2022/08/21 01:33:11;;;;;;;6.20;4.30;;;25.30;99.90;;;;;;1862907;76;21160;-83
2022/08/21 01:35:42;;;;;;;9.48;4.15;;;25.40;99.90;;;;;;1876158;76;21208;-83
2022/08/21 01:38:13;;;;;;;9.40;4.50;;;25.40;99.90;;;;;;1872460;76;21130;-82
2022/08/21 01:40:44;;;;;;;7.75;4.30;;;25.40;99.90;;;;;;1878799;76;21192;-82
2022/08/21 01:43:15;;;;;;;10.23;4.50;;;25.50;99.90;;;;;;1832142;77;21080;-71
2022/08/21 01:45:47;;;;;;;10.78;4.90;;;25.50;99.90;;;;;;1873548;76;21142;-71
2022/08/21 01:48:18;;;;;;;5.97;4.25;;;25.60;99.90;;;;;;1804418;79;21134;-72
2022/08/21 01:50:49;;;;;;;7.80;4.60;;;25.60;99.90;;;;;;1874352;76;21134;-72
2022/08/21 01:53:21;;;;;;;8.13;4.92;;;25.60;99.90;;;;;;1885944;76;21171;-72
2022/08/21 01:55:54;;;;;;;6.85;5.17;;;25.70;99.90;;;;;;1805362;79;21215;-72
2022/08/21 01:58:25;;;;;;;9.98;5.47;;;25.80;99.90;;;;;;1871837;76;21174;-72
2022/08/21 02:00:55;;;;;;;6.33;4.50;;;25.80;99.90;;;;;;1887449;76;21193;-73
2022/08/21 02:03:26;;;;;;;10.85;5.03;;;25.90;99.90;;;;;;1875077;76;21169;-72
2022/08/21 02:05:59;;;;;;;8.53;5.03;;;26.00;99.90;;;;;;1836148;77;21127;-72
2022/08/21 02:08:30;;;;;;;6.47;4.72;;;26.10;99.90;;;;;;1866432;76;21628;-71
2022/08/21 02:11:01;;;;;;;10.40;4.50;;;26.20;99.90;;;;;;1811208;78;21622;-72
2022/08/21 02:13:32;;;;;;;8.90;5.15;;;26.30;99.90;;;;;;1859734;76;21236;-72
2022/08/21 02:16:04;;;;;;;8.58;5.05;;;26.40;99.90;;;;;;1860870;76;21544;-73
2022/08/21 02:18:35;;;;;;;9.85;4.25;;;26.50;99.90;;;;;;1806216;78;21152;-73
2022/08/21 02:21:07;;;;;;;7.17;5.12;;;26.60;99.90;;;;;;1858595;76;21186;-73
2022/08/21 02:23:38;;;;;;;11.55;4.87;;;26.60;99.90;;;;;;1851323;76;21107;-73
2022/08/21 02:26:09;;;;;;;8.95;4.58;;;26.60;99.90;;;;;;1868609;76;21111;-73
2022/08/21 02:28:40;;;;;;;10.10;5.30;;;26.60;99.90;;;;;;1863295;76;21086;-73
2022/08/21 02:31:12;;;;;;;8.23;6.20;;;26.50;99.90;;;;;;1804934;78;21175;-73
2022/08/21 02:33:43;;;;;;;9.30;4.87;;;26.50;99.90;;;;;;1818285;78;21559;-73
2022/08/21 02:36:14;;;;;;;7.50;5.10;;;26.50;99.90;;;;;;1854372;76;21582;-73
2022/08/21 02:38:45;;;;;;;9.83;5.35;;;26.50;99.90;;;;;;1861413;76;21163;-74
2022/08/21 02:41:19;;;;;;;9.53;4.80;;;26.50;99.90;;;;;;1849442;76;21132;-73
2022/08/21 02:43:50;;;;;;;7.72;5.08;;;26.50;99.90;;;;;;1865277;76;21194;-73
2022/08/21 02:46:22;;;;;;;7.05;4.40;;;26.50;99.90;;;;;;1872116;76;21468;-73
2022/08/21 02:48:53;;;;;;;11.63;5.15;;;26.50;99.90;;;;;;1864798;76;21146;-73
2022/08/21 02:51:24;;;;;;;9.53;4.75;;;26.50;99.90;;;;;;1854497;76;21244;-73
2022/08/21 02:53:56;;;;;;;12.43;4.83;;;26.50;99.90;;;;;;1853461;76;21087;-74
2022/08/21 02:56:26;;;;;;;7.20;4.90;;;26.50;99.90;;;;;;1858100;76;21224;-74
2022/08/21 02:58:59;;;;;;;7.90;4.12;;;26.50;99.90;;;;;;1858538;76;21177;-73
2022/08/21 03:01:30;;;;;;;8.68;4.10;;;26.50;99.90;;;;;;1873349;76;21123;-73
2022/08/21 03:04:00;;;;;;;8.93;4.62;;;26.40;99.90;;;;;;1871920;76;21115;-73
2022/08/21 03:06:31;;;;;;;6.40;4.22;;;26.40;99.90;;;;;;1864121;76;21111;-75
2022/08/21 03:09:02;;;;;;;11.50;5.20;;;26.40;99.90;;;;;;1873526;76;21190;-73
2022/08/21 03:11:33;;;;;;;9.28;4.47;;;26.40;99.90;;;;;;1873291;76;21095;-73
2022/08/21 03:14:05;;;;;;;8.03;4.35;;;26.40;99.90;;;;;;1873138;76;21112;-72
2022/08/21 03:16:35;;;;;;;8.28;4.65;;;26.40;99.90;;;;;;1874119;76;21207;-73
2022/08/21 03:19:07;;;;;;;9.60;4.50;;;26.40;99.90;;;;;;1869172;76;21127;-73
2022/08/21 03:21:37;;;;;;;7.72;4.65;;;26.30;99.90;;;;;;1877733;76;21131;-73
2022/08/21 03:24:09;;;;;;;12.78;5.03;;;26.40;99.90;;;;;;1866251;76;21151;-72
2022/08/21 03:26:39;;;;;;;9.53;4.53;;;26.40;99.90;;;;;;1862361;76;21128;-72
2022/08/21 03:29:10;;;;;;;7.75;4.60;;;26.40;99.90;;;;;;1864350;76;21197;-72
2022/08/21 03:31:42;;;;;;;7.10;5.15;;;26.40;99.90;;;;;;1877997;76;21120;-73
2022/08/21 03:34:13;;;;;;;9.28;5.22;;;26.40;99.90;;;;;;1871829;76;21147;-73
2022/08/21 03:36:44;;;;;;;10.10;4.65;;;26.50;99.90;;;;;;1874277;76;21176;-72
2022/08/21 03:39:16;;;;;;;9.98;5.03;;;26.50;99.90;;;;;;1877727;76;21123;-72
2022/08/21 03:41:47;;;;;;;10.00;4.50;;;26.50;99.90;;;;;;1878256;76;21267;-73
2022/08/21 03:44:18;;;;;;;7.65;4.40;;;26.50;99.90;;;;;;1873779;76;21633;-72
2022/08/21 03:46:49;;;;;;;9.75;4.40;;;26.60;99.90;;;;;;1860469;76;21237;-72
2022/08/21 03:49:20;;;;;;;9.80;4.67;;;26.70;99.90;;;;;;1858515;76;21197;-73
2022/08/21 03:51:51;;;;;;;6.97;4.15;;;26.80;99.90;;;;;;1877264;76;21246;-73
2022/08/21 03:54:24;;;;;;;8.85;4.03;;;26.80;99.90;;;;;;1860377;76;21791;-73
2022/08/21 03:56:57;;;;;;;14.07;4.85;;;26.90;99.90;;;;;;1867649;76;21198;-73
2022/08/21 03:59:28;;;;;;;9.65;4.45;;;26.90;99.90;;;;;;1870945;76;21143;-74
2022/08/21 04:02:02;;;;;;;9.78;4.60;;;26.90;99.90;;;;;;1846942;76;21190;-72
2022/08/21 04:04:34;;;;;;;9.93;4.17;;;27.00;99.90;;;;;;1869333;76;21130;-74
2022/08/21 04:07:06;;;;;;;9.45;4.55;;;27.00;99.90;;;;;;1871281;76;21177;-73
2022/08/21 04:09:37;;;;;;;7.20;3.83;;;27.10;99.90;;;;;;1866633;76;21119;-73
2022/08/21 04:12:08;;;;;;;7.75;4.10;;;27.10;99.90;;;;;;1873196;76;21224;-73
2022/08/21 04:14:39;;;;;;;8.93;4.47;;;27.10;99.90;;;;;;1872931;76;21185;-73
2022/08/21 04:17:10;;;;;;;6.25;4.20;;;27.10;99.90;;;;;;1877877;76;21092;-73
2022/08/21 04:19:40;;;;;;;6.72;3.90;;;27.10;99.90;;;;;;1862341;76;21217;-73
2022/08/21 04:22:11;;;;;;;7.67;4.28;;;27.10;99.90;;;;;;1873603;76;21174;-74
2022/08/21 04:24:42;;;;;;;7.95;4.22;;;27.10;99.90;;;;;;1866671;76;21122;-74
2022/08/21 04:27:13;;;;;;;6.67;4.00;;;27.10;99.90;;;;;;1866496;76;21130;-73
2022/08/21 04:29:44;;;;;;;10.45;4.95;;;27.10;99.90;;;;;;1875097;76;21147;-73
2022/08/21 04:32:16;;;;;;;10.20;4.40;;;27.20;99.90;;;;;;1874068;76;21197;-75
2022/08/21 04:34:47;;;;;;;10.08;4.55;;;27.20;99.90;;;;;;1867472;76;21108;-73
2022/08/21 04:37:18;;;;;;;9.85;5.15;;;27.20;99.90;;;;;;1872004;76;21080;-73
2022/08/21 04:39:49;;;;;;;10.35;4.45;;;27.20;99.90;;;;;;1864621;76;21168;-73
2022/08/21 04:42:21;;;;;;;10.18;4.55;;;27.20;99.90;;;;;;1863223;76;21232;-73
2022/08/21 04:44:52;;;;;;;10.23;4.30;;;27.30;99.90;;;;;;1870708;76;21209;-74
2022/08/21 04:47:23;;;;;;;10.08;4.25;;;27.40;99.90;;;;;;1874134;76;21126;-74
2022/08/21 04:49:56;;;;;;;9.15;4.40;;;27.50;99.90;;;;;;1822511;78;21135;-72
2022/08/21 04:52:27;;;;;;;9.43;5.33;;;27.60;99.90;;;;;;1880375;76;21095;-72
2022/08/21 04:54:58;;;;;;;8.63;4.92;;;27.80;99.90;;;;;;1866422;76;21119;-72
2022/08/21 04:57:29;;;;;;;7.62;4.47;;;27.90;99.90;;;;;;1878913;76;21123;-71
2022/08/21 05:00:03;;;;;;;8.98;4.42;;;28.00;99.90;;;;;;1872568;76;21158;-71
2022/08/21 05:02:34;;;;;;;8.88;4.55;;;28.20;99.90;;;;;;1869656;76;21175;-71
2022/08/21 05:05:05;;;;;;;9.18;4.10;;;28.30;99.90;;;;;;1874198;76;21182;-71
2022/08/21 05:07:36;;;;;;;6.72;4.37;;;28.50;99.90;;;;;;1878579;76;21661;-71
2022/08/21 05:10:10;;;;;;;8.60;4.20;;;28.50;99.90;;;;;;1875232;76;21090;-73
2022/08/21 05:12:44;;;;;;;5.75;3.87;;;28.50;99.90;;;;;;1882041;76;21673;-71
2022/08/21 05:15:16;;;;;;;6.53;4.15;;;28.50;99.90;;;;;;1880750;76;21557;-71
2022/08/21 05:18:06;;;;;;;9.48;4.90;;;28.50;99.90;;;;;;1811412;79;21183;-71
2022/08/21 05:20:37;;;;;;;7.58;3.95;;;28.60;99.90;;;;;;1772802;79;21072;-71
2022/08/21 05:23:11;;;;;;;10.65;4.22;;;28.60;99.90;;;;;;1776789;80;21154;-71
2022/08/21 05:25:43;;;;;;;9.53;4.78;;;28.60;99.90;;;;;;1772729;80;21205;-72
2022/08/21 05:28:14;;;;;;;8.23;3.87;;;28.50;99.90;;;;;;1788962;79;22323;-70
2022/08/21 05:30:46;;;;;;;7.53;3.87;;;28.50;99.90;;;;;;1789113;79;21162;-71
2022/08/21 05:33:16;;;;;;;6.87;3.80;;;28.40;99.90;;;;;;1788109;79;21154;-71
2022/08/21 05:35:51;;;;;;;5.92;3.60;;;28.30;99.90;;;;;;1781667;80;21691;-71
2022/08/21 05:38:22;;;;;;;6.85;3.98;;;28.20;99.90;;;;;;1794712;79;21146;-72
2022/08/21 05:40:53;;;;;;;7.55;3.87;;;28.20;99.90;;;;;;1787159;80;21723;-71
2022/08/21 05:43:24;;;;;;;6.58;3.85;;;28.10;99.90;;;;;;1789695;80;21696;-70
2022/08/21 05:45:55;;;;;;;7.05;4.50;;;28.00;99.90;;;;;;1781993;80;21815;-71
2022/08/21 05:48:26;;;;;;;8.80;4.45;;;28.00;99.90;;;;;;1741404;81;21212;-71
2022/08/21 05:50:57;;;;;;;8.00;4.55;;;27.90;99.90;;;;;;1748704;81;21139;-70
2022/08/21 05:53:27;;;;;;;8.83;4.47;;;27.90;99.90;;;;;;1776273;80;21112;-71
2022/08/21 05:55:58;;;;;;;6.90;4.05;;;27.90;99.90;;;;;;1794345;79;21192;-70
2022/08/21 05:58:29;;;;;;;7.12;4.62;;;27.90;99.90;;;;;;1790769;80;21161;-72
2022/08/21 06:01:02;;;;;;;8.58;4.67;;;27.90;99.90;;;;;;1772648;79;21177;-70
2022/08/21 06:03:35;;;;;;;7.80;4.03;;;27.90;99.90;;;;;;1771936;80;21629;-70
2022/08/21 06:06:07;;;;;;;8.00;4.78;;;27.90;99.90;;;;;;1793628;79;21168;-71
2022/08/21 06:08:38;;;;;;;9.75;4.85;;;27.90;99.90;;;;;;1753265;81;21292;-71
2022/08/21 06:11:11;;;;;;;8.03;4.83;;;27.90;99.90;;;;;;1720152;83;21203;-72
2022/08/21 06:13:42;;;;;;;11.78;5.25;;;28.00;99.90;;;;;;1792882;79;21715;-71
2022/08/21 06:16:15;;;;;;;8.95;4.87;;;28.00;99.90;;;;;;1745033;81;21807;-71
2022/08/21 06:18:46;;;;;;;7.83;4.67;;;28.10;99.90;;;;;;1787945;79;21276;-70
2022/08/21 06:21:18;;;;;;;9.00;4.83;;;28.20;99.90;;;;;;1748485;80;21668;-71
2022/08/21 06:23:48;;;;;;;5.35;3.80;;;28.30;99.90;;;;;;1752532;81;21596;-71
2022/08/21 06:26:20;;;;;;;8.68;4.72;;;28.40;99.90;;;;;;1758587;81;21228;-71
2022/08/21 06:28:53;;;;;;;7.97;4.55;;;28.50;99.90;;;;;;1758470;81;21102;-72
2022/08/21 06:31:27;;;;;;;8.33;4.33;;;28.70;99.90;;;;;;1758318;81;21209;-72
2022/08/21 06:33:58;;;;;;;8.40;4.60;;;28.70;99.90;;;;;;1745697;81;21228;-72
2022/08/21 06:36:29;;;;;;;11.68;4.78;;;28.80;99.90;;;;;;1761215;81;21681;-71
2022/08/21 06:38:59;;;;;;;10.85;4.28;;;28.90;99.90;;;;;;1762212;81;22034;-71
2022/08/21 06:41:32;;;;;;;7.67;4.55;;;28.90;99.90;;;;;;1749030;81;21152;-72
2022/08/21 06:44:05;;;;;;;7.70;4.58;;;28.90;99.90;;;;;;1757049;81;21173;-72
2022/08/21 06:46:36;;;;;;;8.75;4.53;;;28.80;99.90;;;;;;1753833;81;21208;-71
2022/08/21 06:49:07;;;;;;;9.20;4.40;;;28.90;99.90;;;;;;1757500;81;21679;-71
2022/08/21 06:51:40;;;;;;;6.95;4.03;;;28.80;99.90;;;;;;1759768;81;21187;-71
2022/08/21 06:54:10;;;;;;;9.50;4.80;;;28.80;99.90;;;;;;1754701;81;21170;-71
2022/08/21 06:56:41;;;;;;;8.98;4.87;;;28.80;99.90;;;;;;1756712;81;21149;-72
2022/08/21 06:59:13;;;;;;;10.40;4.50;;;28.80;99.90;;;;;;1759220;81;21090;-71
2022/08/21 07:01:44;;;;;;;7.45;4.42;;;28.80;99.90;;;;;;1759910;80;21231;-71
2022/08/21 07:04:15;;;;;;;9.33;3.90;;;28.90;99.90;;;;;;1759248;81;21271;-71
2022/08/21 07:06:46;;;;;;;5.90;2.95;;;28.90;99.90;;;;;;1759024;81;21153;-71
2022/08/21 07:09:17;;;;;;;8.95;3.60;;;28.90;99.90;;;;;;1759565;81;21106;-71
2022/08/21 07:11:52;;;;;;;6.30;3.55;;;28.90;99.90;;;;;;1756960;81;21175;-70
2022/08/21 07:14:23;;;;;;;10.98;3.55;;;28.90;99.90;;;;;;1758798;81;21154;-71
2022/08/21 07:16:55;;;;;;;6.70;3.37;;;28.90;99.90;;;;;;1758326;81;21173;-71
2022/08/21 07:19:26;;;;;;;5.75;3.12;;;28.90;99.90;;;;;;1750733;81;21714;-70
2022/08/21 07:21:59;;;;;;;5.22;2.83;;;28.90;99.90;;;;;;1772921;80;21599;-70
2022/08/21 07:24:31;;;;;;;9.23;2.65;;;28.80;99.90;;;;;;1743618;81;21135;-71
2022/08/21 07:27:01;;;;;;;4.62;2.62;;;28.80;99.90;;;;;;1742944;80;21608;-71
2022/08/21 07:29:34;;;;;;;6.97;2.95;;;28.80;99.90;;;;;;1758361;80;21161;-71
2022/08/21 07:32:06;;;;;;;6.25;3.30;;;28.90;99.90;;;;;;1744287;81;21157;-72
2022/08/21 07:34:37;;;;;;;7.60;2.75;;;28.90;99.90;;;;;;1748049;80;21182;-71
2022/08/21 07:37:08;;;;;;;7.58;3.77;;;28.90;99.90;;;;;;1745939;82;21190;-70
2022/08/21 07:39:39;;;;;;;8.75;3.75;;;29.00;99.90;;;;;;1786641;80;21100;-71
2022/08/21 07:42:10;;;;;;;6.87;3.10;;;29.10;99.90;;;;;;1784413;80;21157;-71
2022/08/21 07:44:41;;;;;;;7.05;3.62;;;29.20;99.90;;;;;;1775868;80;21103;-70
2022/08/21 07:47:12;;;;;;;5.90;3.08;;;29.20;99.90;;;;;;1781002;80;21551;-71
2022/08/21 07:49:43;;;;;;;8.25;3.62;;;29.20;99.90;;;;;;1781074;80;21221;-72
2022/08/21 07:52:15;;;;;;;6.00;3.42;;;29.30;99.90;;;;;;1783384;80;21177;-71
2022/08/21 07:54:45;;;;;;;8.08;3.65;;;29.30;99.90;;;;;;1772085;80;21787;-71
2022/08/21 07:57:16;;;;;;;9.08;3.75;;;29.30;99.90;;;;;;1783040;80;21126;-71
2022/08/21 07:59:48;;;;;;;7.78;3.50;;;29.30;99.90;;;;;;1780249;79;21153;-72
2022/08/21 08:02:22;;;;;;;8.20;3.80;;;29.30;99.90;;;;;;1762421;80;21256;-71
2022/08/21 08:04:53;;;;;;;7.42;3.60;;;29.40;99.90;;;;;;1744885;82;21618;-72
2022/08/21 08:07:24;;;;;;;6.37;3.40;;;29.50;99.90;;;;;;1781711;80;21661;-71
2022/08/21 08:09:55;;;;;;;8.98;4.08;;;29.60;99.90;;;;;;1781346;80;21723;-71
2022/08/21 08:12:29;;;;;;;7.28;4.15;;;29.60;99.90;;;;;;1772064;80;21166;-71
2022/08/21 08:15:00;;;;;;;12.28;4.00;;;29.70;99.90;;;;;;1775149;80;21633;-70
2022/08/21 08:17:32;;;;;;;9.85;3.95;;;29.70;99.60;;;;;;1782448;80;21157;-71
2022/08/21 08:20:03;;;;;;;7.10;3.72;;;29.80;99.40;;;;;;1781661;80;21966;-71
2022/08/21 08:22:37;;;;;;;10.48;4.08;;;29.80;98.80;;;;;;1782974;78;21742;-70
2022/08/21 08:25:10;;;;;;;8.75;4.20;;;29.90;98.70;;;;;;1787587;80;21228;-71
2022/08/21 08:27:42;;;;;;;7.03;4.00;;;30.00;98.50;;;;;;1758499;80;21217;-71
2022/08/21 08:30:16;;;;;;;7.45;3.58;;;30.10;98.40;;;;;;1755190;80;21177;-71
2022/08/21 08:32:48;;;;;;;9.55;4.50;;;30.20;98.20;;;;;;1791260;80;21144;-72
2022/08/21 08:35:19;;;;;;;10.60;4.05;;;30.20;98.10;;;;;;1756505;80;21167;-72
2022/08/21 08:37:52;;;;;;;6.25;4.10;;;30.30;97.50;;;;;;1791286;80;21216;-71
2022/08/21 08:40:25;;;;;;;7.95;4.80;;;30.30;97.70;;;;;;1783209;80;21134;-71
2022/08/21 08:42:56;;;;;;;10.10;4.37;;;30.40;97.90;;;;;;1787331;80;21157;-72
2022/08/21 08:45:30;;;;;;;6.47;3.67;;;30.30;97.60;;;;;;1785599;80;21304;-72
2022/08/21 08:48:03;;;;;;;8.20;3.30;;;30.40;97.70;;;;;;1761300;80;21175;-71
2022/08/21 08:50:38;;;;;;;7.62;3.10;;;30.30;97.40;;;;;;1719584;83;21166;-71
2022/08/21 08:53:12;;;;;;;7.92;3.58;;;30.30;97.90;;;;;;1788160;80;21735;-72
2022/08/21 08:55:45;;;;;;;8.38;3.90;;;30.20;97.60;;;;;;1787599;80;21673;-72
2022/08/21 08:58:19;;;;;;;7.62;3.52;;;30.20;97.50;;;;;;1787789;80;21262;-71
2022/08/21 09:00:52;;;;;;;9.30;4.33;;;30.20;97.70;;;;;;1779457;80;21191;-72
2022/08/21 09:03:25;;;;;;;8.25;3.75;;;30.10;97.40;;;;;;1787156;79;21610;-71
2022/08/21 09:05:58;;;;;;;6.92;3.92;;;30.10;97.80;;;;;;1754383;80;21245;-71
2022/08/21 09:08:31;;;;;;;9.35;4.35;;;30.10;97.80;;;;;;1770839;80;21146;-72
2022/08/21 09:11:04;;;;;;;9.78;3.60;;;30.10;98.40;;;;;;1790942;80;21162;-71
2022/08/21 09:13:37;;;;;;;8.83;3.35;;;30.00;98.60;;;;;;1785636;80;21184;-72
2022/08/21 09:16:08;;;;;;;7.20;3.70;;;30.00;98.00;;;;;;1754893;80;21654;-72
2022/08/21 09:18:42;;;;;;;8.60;4.22;;;30.00;97.90;;;;;;1788910;80;21100;-72
2022/08/21 09:21:15;;;;;;;6.78;4.03;;;30.00;98.20;;;;;;1752222;80;21198;-71
2022/08/21 09:24:10;;;;;;;9.55;4.20;;;30.00;97.80;;;;;;1758000;81;21174;-71
2022/08/21 09:26:41;;;;;;;6.28;3.98;;;30.00;97.70;;;;;;1796064;78;21118;-69
2022/08/21 09:29:13;;;;;;;8.58;4.33;;;30.00;97.90;;;;;;1797932;79;21617;-72
2022/08/21 09:31:44;;;;;;;7.92;4.05;;;30.00;98.70;;;;;;1798129;80;21500;-71
2022/08/21 09:34:18;;;;;;;9.10;4.37;;;30.00;99.00;;;;;;1785905;80;21201;-71
2022/08/21 09:36:51;;;;;;;10.93;4.35;;;29.90;99.10;;;;;;1787387;80;21134;-71
2022/08/21 09:39:25;;;;;;;8.93;4.12;;;29.90;99.10;;;;;;1798239;80;21858;-71
2022/08/21 09:41:58;;;;;;;10.30;4.67;;;29.80;99.10;;;;;;1795339;80;21622;-71
2022/08/21 09:44:31;;;;;;;8.98;4.10;;;29.80;99.30;;;;;;1790188;80;21863;-71
2022/08/21 09:47:02;;;;;;;10.18;4.30;;;29.80;99.00;;;;;;1780542;80;21711;-72
2022/08/21 09:49:36;;;;;;;9.68;4.25;;;29.80;99.10;;;;;;1795272;80;21161;-71
2022/08/21 09:52:09;;;;;;;12.28;4.50;;;29.70;99.20;;;;;;1785645;80;21760;-72
2022/08/21 09:54:41;;;;;;;12.18;4.75;;;29.60;99.20;;;;;;1787351;79;21657;-71
2022/08/21 09:59:46;;;;;;;11.53;5.90;;;29.60;99.20;;;;;;1797993;79;21135;-72
2022/08/21 10:02:19;;;;;;;10.78;4.50;;;29.50;99.30;;;;;;1795314;80;21167;-72
2022/08/21 10:04:53;;;;;;;11.18;4.85;;;29.50;99.20;;;;;;1789434;80;21176;-72
2022/08/21 10:07:27;;;;;;;16.82;4.60;;;29.50;99.40;;;;;;1790534;80;21132;-72
2022/08/21 10:10:00;;;;;;;11.60;4.83;;;29.50;99.70;;;;;;1795843;80;21650;-70
2022/08/21 10:12:34;;;;;;;11.18;4.75;;;29.50;99.60;;;;;;1794141;80;21138;-71
2022/08/21 10:15:08;;;;;;;8.60;4.53;;;29.50;99.50;;;;;;1788896;80;21705;-70
2022/08/21 10:17:41;;;;;;;12.18;4.78;;;29.50;99.20;;;;;;1789952;80;21092;-71
2022/08/21 10:20:15;;;;;;;12.40;4.62;;;29.50;99.50;;;;;;1794055;80;21213;-70
2022/08/21 10:22:46;;;;;;;11.63;4.50;;;29.50;99.40;;;;;;1789613;80;21177;-72
2022/08/21 10:25:20;;;;;;;11.45;5.05;;;29.50;99.60;;;;;;1800622;79;21213;-71
2022/08/21 10:27:52;;;;;;;10.28;4.87;;;29.40;99.20;;;;;;1780782;80;21247;-71
2022/08/21 10:30:25;;;;;;;9.85;4.85;;;29.50;99.50;;;;;;1777869;79;21280;-71
2022/08/21 10:32:58;;;;;;;11.12;4.90;;;29.40;99.00;;;;;;1776202;80;21624;-70
2022/08/21 10:35:33;;;;;;;10.45;4.53;;;29.40;99.20;;;;;;1784451;79;21230;-71
2022/08/21 10:38:07;;;;;;;10.80;5.10;;;29.40;99.50;;;;;;1783595;80;21697;-71
2022/08/21 10:40:39;;;;;;;9.73;4.60;;;29.40;99.60;;;;;;1798017;79;21163;-70
2022/08/21 10:43:13;;;;;;;12.18;4.35;;;29.30;99.60;;;;;;1808048;79;21099;-70
2022/08/21 10:45:45;;;;;;;9.38;4.00;;;29.30;99.90;;;;;;1778653;80;21589;-70
2022/08/21 10:48:19;;;;;;;11.15;4.87;;;29.30;99.70;;;;;;1778153;80;21949;-70
2022/08/21 10:50:53;;;;;;;13.08;5.35;;;29.20;99.50;;;;;;1783819;80;21179;-71
2022/08/21 10:53:26;;;;;;;9.75;4.67;;;29.20;99.40;;;;;;1779156;80;21636;-71
2022/08/21 10:55:58;;;;;;;13.53;4.72;;;29.10;99.50;;;;;;1781765;80;21497;-71
2022/08/21 10:58:31;;;;;;;10.08;4.50;;;29.10;99.70;;;;;;1774446;80;21696;-70
2022/08/21 11:01:04;;;;;;;9.83;4.90;;;29.10;99.50;;;;;;1776167;80;21300;-71
2022/08/21 11:03:37;;;;;;;12.50;4.62;;;29.10;99.50;;;;;;1782473;79;21202;-71
2022/08/21 11:06:10;;;;;;;11.35;4.60;;;29.00;99.40;;;;;;1810985;79;21244;-71
2022/08/21 11:08:44;;;;;;;10.32;4.50;;;29.00;99.40;;;;;;1779843;79;21672;-71
2022/08/21 11:11:17;;;;;;;12.58;5.12;;;29.00;99.40;;;;;;1783366;80;21172;-70
2022/08/21 11:13:52;;;;;;;11.95;4.87;;;29.00;99.40;;;;;;1780681;79;21069;-70
2022/08/21 11:16:25;;;;;;;10.55;4.42;;;29.00;99.30;;;;;;1777844;79;21185;-71
2022/08/21 11:18:58;;;;;;;12.63;5.37;;;28.90;99.50;;;;;;1773829;80;21528;-70
2022/08/21 11:21:31;;;;;;;10.03;4.50;;;28.90;99.80;;;;;;1784657;80;21144;-70
2022/08/21 11:24:03;;;;;;;14.20;5.15;;;28.90;99.30;;;;;;1780788;79;21209;-71
2022/08/21 11:26:37;;;;;;;10.40;4.83;;;28.90;99.40;;;;;;1781062;79;21648;-71
2022/08/21 11:29:11;;;;;;;12.37;4.30;;;28.90;99.30;;;;;;1772694;80;21733;-71
2022/08/21 11:31:44;;;;;;;11.38;5.10;;;28.90;99.40;;;;;;1785547;79;21622;-71
2022/08/21 11:34:16;;;;;;;12.07;4.80;;;28.80;99.40;;;;;;1778789;79;22534;-72
2022/08/21 11:36:50;;;;;;;16.85;4.97;;;28.80;99.50;;;;;;1774472;80;21510;-71
2022/08/21 11:39:22;;;;;;;6.97;4.87;;;28.80;99.60;;;;;;1785303;80;21182;-70
2022/08/21 11:41:55;;;;;;;10.10;5.60;;;28.70;99.60;;;;;;1787922;79;21655;-72
2022/08/21 11:44:27;;;;;;;8.68;4.90;;;28.80;99.90;;;;;;1744220;81;21135;-71
2022/08/21 11:47:00;;;;;;;13.05;4.83;;;28.70;99.80;;;;;;1782257;80;21685;-71
2022/08/21 11:49:34;;;;;;;11.83;5.22;;;28.70;99.80;;;;;;1784809;79;21581;-71
2022/08/21 11:52:08;;;;;;;13.90;5.22;;;28.70;99.90;;;;;;1778087;79;21178;-69
2022/08/21 11:54:43;;;;;;;14.63;5.12;;;28.70;99.90;;;;;;1784514;80;21138;-72
2022/08/21 11:57:16;;;;;;;11.18;5.53;;;28.70;99.90;;;;;;1748908;81;21760;-70
2022/08/21 11:59:49;;;;;;;11.55;5.58;;;28.70;99.90;;;;;;1785726;80;21746;-71
2022/08/21 12:02:22;;;;;;;10.58;6.33;;;28.70;99.90;;;;;;1786047;79;21199;-71
2022/08/21 12:04:56;;;;;;;14.07;5.80;;;28.60;99.90;;;;;;1781641;80;21701;-71
2022/08/21 12:07:30;;;;;;;12.47;5.90;;;28.60;99.90;;;;;;1779768;79;21166;-70
2022/08/21 12:10:02;;;;;;;13.30;7.03;;;28.60;99.90;;;;;;1759820;81;21668;-70
2022/08/21 12:12:35;;;;;;;15.38;6.47;;;28.60;99.90;;;;;;1784609;80;21153;-71
2022/08/21 12:15:08;;;;;;;12.58;6.50;;;28.60;99.90;;;;;;1787354;79;21173;-71
2022/08/21 12:17:42;;;;;;;14.73;6.80;;;28.60;99.90;;;;;;1783890;79;21177;-70
2022/08/21 12:20:15;;;;;;;11.70;6.53;;;28.60;99.90;;;;;;1785065;80;21102;-70
2022/08/21 12:22:48;;;;;;;16.90;6.33;;;28.60;99.90;;;;;;1756203;81;22267;-71
2022/08/21 12:25:22;;;;;;;14.15;5.87;;;28.60;99.90;;;;;;1777213;79;21170;-70
2022/08/21 12:27:55;;;;;;;13.43;6.50;;;28.60;99.90;;;;;;1803906;79;21179;-70
2022/08/21 12:30:27;;;;;;;14.63;6.37;;;28.60;99.90;;;;;;1802628;79;21120;-70
2022/08/21 12:33:01;;;;;;;13.53;6.35;;;28.50;99.90;;;;;;1828363;77;21610;-70
2022/08/21 12:35:34;;;;;;;13.25;5.92;;;28.50;99.90;;;;;;1820217;78;21536;-70
2022/08/21 12:38:08;;;;;;;11.85;5.95;;;28.60;99.90;;;;;;1812633;78;21668;-70
2022/08/21 12:40:41;;;;;;;14.40;5.75;;;28.50;99.90;;;;;;1813723;78;21591;-70
2022/08/21 12:43:14;;;;;;;13.88;6.97;;;28.60;99.90;;;;;;1825499;78;21056;-71
2022/08/21 12:45:48;;;;;;;12.73;6.90;;;28.50;99.90;;;;;;1825341;77;21130;-70
2022/08/21 12:48:22;;;;;;;11.78;6.72;;;28.60;99.90;;;;;;1820489;78;21069;-70
2022/08/21 12:51:00;;;;;;;15.93;6.53;;;28.50;99.90;;;;;;1815369;78;21123;-70
2022/08/21 12:53:31;;;;;;;10.98;6.22;;;28.50;99.90;;;;;;1824197;78;21532;-71
2022/08/21 12:56:04;;;;;;;11.75;5.70;;;28.50;99.90;;;;;;1813036;78;21127;-71
2022/08/21 12:58:35;;;;;;;17.10;6.90;;;28.50;99.90;;;;;;1824885;78;21116;-71
2022/08/21 13:01:08;;;;;;;13.03;6.08;;;28.50;99.90;;;;;;1824839;78;21174;-71
2022/08/21 13:03:40;;;;;;;14.60;6.72;;;28.50;99.90;;;;;;1820117;78;22043;-71
2022/08/21 13:06:13;;;;;;;13.45;6.50;;;28.50;99.90;;;;;;1819055;78;21076;-70
2022/08/21 13:08:46;;;;;;;14.65;7.30;;;28.50;99.90;;;;;;1827362;78;21135;-71
2022/08/21 13:11:19;;;;;;;10.18;6.22;;;28.50;99.90;;;;;;1826167;78;21166;-71